Terminal Aerodrome Forecast
Issued by NWS Sterling, VA

Current Version | Previous Version | Graphics & Text | Print | Product List | Glossary On
Versions: 1 2 3 4 5 6 7 8 9 10 11 12 13 14 15 16
000
FTUS41 KLWX 152300
TAFMRB
TAF
KMRB 152331Z 1600/1624 32020G30KT P6SM SCT015 BKN050
     FM160300 32017G27KT P6SM FEW250
     FM161200 34012G22KT P6SM SKC
     FM161700 01008KT P6SM SKC
     FM162300 09005KT P6SM FEW250=

USA.gov is the U.S. government's official web portal to all federal, state and local government web resources and services.